sensor_id;sensor_type;location;lat;lon;timestamp;P1;durP1;ratioP1;P2;durP2;ratioP2
80758;SDS011;70150;45.582;10.178;2023-05-28T00:02:18;11.75;;;4.85;;
80758;SDS011;70150;45.582;10.178;2023-05-28T00:04:46;9.07;;;4.50;;
80758;SDS011;70150;45.582;10.178;2023-05-28T00:07:11;10.48;;;4.53;;
80758;SDS011;70150;45.582;10.178;2023-05-28T00:09:37;10.93;;;4.45;;
80758;SDS011;70150;45.582;10.178;2023-05-28T00:12:03;7.65;;;4.35;;
80758;SDS011;70150;45.582;10.178;2023-05-28T00:14:29;6.97;;;4.50;;
80758;SDS011;70150;45.582;10.178;2023-05-28T00:16:54;9.30;;;4.18;;
80758;SDS011;70150;45.582;10.178;2023-05-28T00:19:21;8.48;;;4.40;;
80758;SDS011;70150;45.582;10.178;2023-05-28T00:21:47;8.43;;;4.80;;
80758;SDS011;70150;45.582;10.178;2023-05-28T00:24:12;9.20;;;4.47;;
80758;SDS011;70150;45.582;10.178;2023-05-28T00:26:38;7.85;;;4.38;;
80758;SDS011;70150;45.582;10.178;2023-05-28T00:29:04;7.63;;;4.65;;
80758;SDS011;70150;45.582;10.178;2023-05-28T00:31:29;6.75;;;4.20;;
80758;SDS011;70150;45.582;10.178;2023-05-28T00:33:55;9.95;;;5.00;;
80758;SDS011;70150;45.582;10.178;2023-05-28T00:36:21;8.00;;;4.72;;
80758;SDS011;70150;45.582;10.178;2023-05-28T00:38:47;9.02;;;4.85;;
80758;SDS011;70150;45.582;10.178;2023-05-28T00:41:13;7.63;;;4.63;;
80758;SDS011;70150;45.582;10.178;2023-05-28T00:43:45;9.50;;;4.85;;
80758;SDS011;70150;45.582;10.178;2023-05-28T00:46:11;8.15;;;4.75;;
80758;SDS011;70150;45.582;10.178;2023-05-28T00:48:37;8.68;;;4.65;;
80758;SDS011;70150;45.582;10.178;2023-05-28T00:51:03;8.85;;;4.93;;
80758;SDS011;70150;45.582;10.178;2023-05-28T00:53:30;8.75;;;4.80;;
80758;SDS011;70150;45.582;10.178;2023-05-28T00:55:55;7.88;;;4.80;;
80758;SDS011;70150;45.582;10.178;2023-05-28T00:58:22;8.55;;;5.15;;
80758;SDS011;70150;45.582;10.178;2023-05-28T01:00:50;7.97;;;4.70;;
80758;SDS011;70150;45.582;10.178;2023-05-28T01:03:15;9.15;;;4.45;;
80758;SDS011;70150;45.582;10.178;2023-05-28T01:05:41;7.10;;;4.45;;
80758;SDS011;70150;45.582;10.178;2023-05-28T01:08:07;7.38;;;4.25;;
80758;SDS011;70150;45.582;10.178;2023-05-28T01:10:34;6.38;;;4.30;;
80758;SDS011;70150;45.582;10.178;2023-05-28T01:15:27;8.45;;;4.13;;
80758;SDS011;70150;45.582;10.178;2023-05-28T01:20:23;8.95;;;4.32;;
80758;SDS011;70150;45.582;10.178;2023-05-28T01:22:53;7.97;;;4.57;;
80758;SDS011;70150;45.582;10.178;2023-05-28T01:25:20;8.38;;;4.55;;
80758;SDS011;70150;45.582;10.178;2023-05-28T01:30:13;11.80;;;4.90;;
80758;SDS011;70150;45.582;10.178;2023-05-28T01:32:38;8.10;;;4.78;;
80758;SDS011;70150;45.582;10.178;2023-05-28T01:35:04;7.93;;;4.22;;
80758;SDS011;70150;45.582;10.178;2023-05-28T01:37:32;11.10;;;4.68;;
80758;SDS011;70150;45.582;10.178;2023-05-28T01:40:00;9.30;;;4.30;;
80758;SDS011;70150;45.582;10.178;2023-05-28T01:42:28;8.38;;;4.55;;
80758;SDS011;70150;45.582;10.178;2023-05-28T01:44:55;6.63;;;4.45;;
80758;SDS011;70150;45.582;10.178;2023-05-28T01:47:22;6.95;;;4.50;;
80758;SDS011;70150;45.582;10.178;2023-05-28T01:49:49;6.43;;;3.78;;
80758;SDS011;70150;45.582;10.178;2023-05-28T01:52:15;6.93;;;4.00;;
80758;SDS011;70150;45.582;10.178;2023-05-28T01:54:41;8.32;;;4.40;;
80758;SDS011;70150;45.582;10.178;2023-05-28T01:57:06;9.27;;;4.95;;
80758;SDS011;70150;45.582;10.178;2023-05-28T01:59:32;6.68;;;4.15;;
80758;SDS011;70150;45.582;10.178;2023-05-28T02:01:58;7.03;;;4.00;;
80758;SDS011;70150;45.582;10.178;2023-05-28T02:04:24;8.98;;;4.00;;
80758;SDS011;70150;45.582;10.178;2023-05-28T02:06:50;8.38;;;4.00;;
80758;SDS011;70150;45.582;10.178;2023-05-28T02:09:16;7.07;;;4.25;;
80758;SDS011;70150;45.582;10.178;2023-05-28T02:11:41;10.23;;;4.90;;
80758;SDS011;70150;45.582;10.178;2023-05-28T02:14:07;6.70;;;4.18;;
80758;SDS011;70150;45.582;10.178;2023-05-28T02:16:34;7.55;;;4.50;;
80758;SDS011;70150;45.582;10.178;2023-05-28T02:19:00;6.55;;;4.22;;
80758;SDS011;70150;45.582;10.178;2023-05-28T02:21:26;6.40;;;4.32;;
80758;SDS011;70150;45.582;10.178;2023-05-28T02:23:53;8.73;;;4.53;;
80758;SDS011;70150;45.582;10.178;2023-05-28T02:26:19;7.47;;;4.32;;
80758;SDS011;70150;45.582;10.178;2023-05-28T02:28:45;8.82;;;4.25;;
80758;SDS011;70150;45.582;10.178;2023-05-28T02:31:11;7.35;;;4.32;;
80758;SDS011;70150;45.582;10.178;2023-05-28T02:33:38;6.82;;;4.13;;
80758;SDS011;70150;45.582;10.178;2023-05-28T02:36:05;7.22;;;4.38;;
80758;SDS011;70150;45.582;10.178;2023-05-28T02:38:31;7.40;;;4.30;;
80758;SDS011;70150;45.582;10.178;2023-05-28T02:41:00;8.80;;;4.47;;
80758;SDS011;70150;45.582;10.178;2023-05-28T02:43:27;8.23;;;4.20;;
80758;SDS011;70150;45.582;10.178;2023-05-28T02:45:53;11.88;;;4.60;;
80758;SDS011;70150;45.582;10.178;2023-05-28T02:48:18;7.00;;;4.20;;
80758;SDS011;70150;45.582;10.178;2023-05-28T02:50:44;7.90;;;4.63;;
80758;SDS011;70150;45.582;10.178;2023-05-28T02:53:09;9.10;;;4.18;;
80758;SDS011;70150;45.582;10.178;2023-05-28T02:55:35;7.30;;;4.20;;
80758;SDS011;70150;45.582;10.178;2023-05-28T02:58:00;7.60;;;4.32;;
80758;SDS011;70150;45.582;10.178;2023-05-28T03:00:26;9.27;;;4.35;;
80758;SDS011;70150;45.582;10.178;2023-05-28T03:02:51;8.82;;;4.68;;
80758;SDS011;70150;45.582;10.178;2023-05-28T03:05:17;7.05;;;4.32;;
80758;SDS011;70150;45.582;10.178;2023-05-28T03:07:42;8.98;;;4.30;;
80758;SDS011;70150;45.582;10.178;2023-05-28T03:10:08;11.43;;;4.45;;
80758;SDS011;70150;45.582;10.178;2023-05-28T03:12:34;7.38;;;4.25;;
80758;SDS011;70150;45.582;10.178;2023-05-28T03:15:03;11.27;;;4.95;;
80758;SDS011;70150;45.582;10.178;2023-05-28T03:17:29;6.43;;;4.40;;
80758;SDS011;70150;45.582;10.178;2023-05-28T03:19:55;13.80;;;4.70;;
80758;SDS011;70150;45.582;10.178;2023-05-28T03:22:21;12.63;;;5.18;;
80758;SDS011;70150;45.582;10.178;2023-05-28T03:24:46;10.73;;;4.93;;
80758;SDS011;70150;45.582;10.178;2023-05-28T03:27:12;9.15;;;4.90;;
80758;SDS011;70150;45.582;10.178;2023-05-28T03:29:37;7.63;;;4.85;;
80758;SDS011;70150;45.582;10.178;2023-05-28T03:32:03;7.75;;;4.72;;
80758;SDS011;70150;45.582;10.178;2023-05-28T03:34:29;6.63;;;4.60;;
80758;SDS011;70150;45.582;10.178;2023-05-28T03:36:54;8.80;;;4.40;;
80758;SDS011;70150;45.582;10.178;2023-05-28T03:39:20;9.48;;;4.35;;
80758;SDS011;70150;45.582;10.178;2023-05-28T03:41:46;7.65;;;4.65;;
80758;SDS011;70150;45.582;10.178;2023-05-28T03:44:11;6.80;;;4.18;;
80758;SDS011;70150;45.582;10.178;2023-05-28T03:46:37;7.63;;;4.63;;
80758;SDS011;70150;45.582;10.178;2023-05-28T03:49:02;8.48;;;4.70;;
80758;SDS011;70150;45.582;10.178;2023-05-28T03:51:28;8.80;;;4.55;;
80758;SDS011;70150;45.582;10.178;2023-05-28T03:53:54;12.35;;;6.18;;
80758;SDS011;70150;45.582;10.178;2023-05-28T03:56:19;8.15;;;5.50;;
80758;SDS011;70150;45.582;10.178;2023-05-28T03:58:48;9.50;;;5.22;;
80758;SDS011;70150;45.582;10.178;2023-05-28T04:01:13;7.70;;;4.78;;
80758;SDS011;70150;45.582;10.178;2023-05-28T04:03:39;7.10;;;4.32;;
80758;SDS011;70150;45.582;10.178;2023-05-28T04:06:05;7.68;;;4.78;;
80758;SDS011;70150;45.582;10.178;2023-05-28T04:08:32;9.15;;;4.78;;
80758;SDS011;70150;45.582;10.178;2023-05-28T04:10:57;8.23;;;4.72;;
80758;SDS011;70150;45.582;10.178;2023-05-28T04:13:25;11.20;;;4.75;;
80758;SDS011;70150;45.582;10.178;2023-05-28T04:15:51;8.68;;;4.15;;
80758;SDS011;70150;45.582;10.178;2023-05-28T04:18:17;7.07;;;4.80;;
80758;SDS011;70150;45.582;10.178;2023-05-28T04:20:43;8.80;;;4.18;;
80758;SDS011;70150;45.582;10.178;2023-05-28T04:23:08;8.50;;;4.50;;
80758;SDS011;70150;45.582;10.178;2023-05-28T04:25:36;7.65;;;4.38;;
80758;SDS011;70150;45.582;10.178;2023-05-28T04:28:03;9.38;;;4.88;;
80758;SDS011;70150;45.582;10.178;2023-05-28T04:30:29;9.00;;;4.70;;
80758;SDS011;70150;45.582;10.178;2023-05-28T04:32:54;7.22;;;4.47;;
80758;SDS011;70150;45.582;10.178;2023-05-28T04:35:21;8.45;;;4.95;;
80758;SDS011;70150;45.582;10.178;2023-05-28T04:37:47;9.65;;;4.28;;
80758;SDS011;70150;45.582;10.178;2023-05-28T04:40:13;8.15;;;4.07;;
80758;SDS011;70150;45.582;10.178;2023-05-28T04:42:39;8.50;;;4.55;;
80758;SDS011;70150;45.582;10.178;2023-05-28T04:45:07;7.07;;;4.35;;
80758;SDS011;70150;45.582;10.178;2023-05-28T04:47:35;8.25;;;4.70;;
80758;SDS011;70150;45.582;10.178;2023-05-28T04:50:02;9.82;;;4.78;;
80758;SDS011;70150;45.582;10.178;2023-05-28T04:52:29;7.13;;;4.50;;
80758;SDS011;70150;45.582;10.178;2023-05-28T04:54:57;8.55;;;4.57;;
80758;SDS011;70150;45.582;10.178;2023-05-28T04:57:23;7.82;;;4.45;;
80758;SDS011;70150;45.582;10.178;2023-05-28T04:59:49;9.10;;;4.35;;
80758;SDS011;70150;45.582;10.178;2023-05-28T05:02:15;8.38;;;4.50;;
80758;SDS011;70150;45.582;10.178;2023-05-28T05:04:43;7.60;;;4.18;;
80758;SDS011;70150;45.582;10.178;2023-05-28T05:07:10;6.85;;;4.22;;
80758;SDS011;70150;45.582;10.178;2023-05-28T05:09:36;9.05;;;4.40;;
80758;SDS011;70150;45.582;10.178;2023-05-28T05:12:01;7.80;;;4.85;;
80758;SDS011;70150;45.582;10.178;2023-05-28T05:14:27;7.95;;;4.70;;
80758;SDS011;70150;45.582;10.178;2023-05-28T05:16:52;8.48;;;4.53;;
80758;SDS011;70150;45.582;10.178;2023-05-28T05:19:18;8.70;;;4.57;;
80758;SDS011;70150;45.582;10.178;2023-05-28T05:21:44;6.82;;;4.10;;
80758;SDS011;70150;45.582;10.178;2023-05-28T05:24:09;7.00;;;4.20;;
80758;SDS011;70150;45.582;10.178;2023-05-28T05:26:35;7.10;;;4.20;;
80758;SDS011;70150;45.582;10.178;2023-05-28T05:29:00;6.53;;;4.32;;
80758;SDS011;70150;45.582;10.178;2023-05-28T05:31:26;9.70;;;4.18;;
80758;SDS011;70150;45.582;10.178;2023-05-28T05:33:52;7.03;;;4.22;;
80758;SDS011;70150;45.582;10.178;2023-05-28T05:36:18;6.40;;;4.38;;
80758;SDS011;70150;45.582;10.178;2023-05-28T05:38:43;7.82;;;4.28;;
80758;SDS011;70150;45.582;10.178;2023-05-28T05:41:11;6.72;;;4.30;;
80758;SDS011;70150;45.582;10.178;2023-05-28T05:43:37;5.50;;;3.83;;
80758;SDS011;70150;45.582;10.178;2023-05-28T05:46:02;7.90;;;3.80;;
80758;SDS011;70150;45.582;10.178;2023-05-28T05:48:28;7.75;;;4.18;;
80758;SDS011;70150;45.582;10.178;2023-05-28T05:50:54;6.97;;;4.45;;
80758;SDS011;70150;45.582;10.178;2023-05-28T05:53:21;8.20;;;4.18;;
80758;SDS011;70150;45.582;10.178;2023-05-28T05:55:47;8.05;;;4.35;;
80758;SDS011;70150;45.582;10.178;2023-05-28T05:58:13;6.53;;;4.05;;
80758;SDS011;70150;45.582;10.178;2023-05-28T06:00:39;7.28;;;4.15;;
80758;SDS011;70150;45.582;10.178;2023-05-28T06:03:05;8.38;;;4.50;;
80758;SDS011;70150;45.582;10.178;2023-05-28T06:05:31;7.78;;;4.45;;
80758;SDS011;70150;45.582;10.178;2023-05-28T06:10:23;8.77;;;4.57;;
80758;SDS011;70150;45.582;10.178;2023-05-28T06:12:48;7.28;;;4.25;;
80758;SDS011;70150;45.582;10.178;2023-05-28T06:15:14;6.32;;;4.50;;
80758;SDS011;70150;45.582;10.178;2023-05-28T06:17:39;6.50;;;4.07;;
80758;SDS011;70150;45.582;10.178;2023-05-28T06:22:34;5.60;;;4.25;;
80758;SDS011;70150;45.582;10.178;2023-05-28T06:27:27;5.65;;;4.20;;
80758;SDS011;70150;45.582;10.178;2023-05-28T06:29:53;7.15;;;4.40;;
80758;SDS011;70150;45.582;10.178;2023-05-28T06:32:21;6.97;;;4.57;;
80758;SDS011;70150;45.582;10.178;2023-05-28T06:34:46;6.28;;;4.35;;
80758;SDS011;70150;45.582;10.178;2023-05-28T06:37:12;6.82;;;4.47;;
80758;SDS011;70150;45.582;10.178;2023-05-28T06:39:37;6.30;;;4.75;;
80758;SDS011;70150;45.582;10.178;2023-05-28T06:42:03;5.47;;;4.57;;
80758;SDS011;70150;45.582;10.178;2023-05-28T06:44:30;6.95;;;4.70;;
80758;SDS011;70150;45.582;10.178;2023-05-28T06:46:55;8.90;;;5.43;;
80758;SDS011;70150;45.582;10.178;2023-05-28T06:49:21;6.32;;;4.78;;
80758;SDS011;70150;45.582;10.178;2023-05-28T06:51:46;8.55;;;4.85;;
80758;SDS011;70150;45.582;10.178;2023-05-28T06:54:12;10.07;;;5.45;;
80758;SDS011;70150;45.582;10.178;2023-05-28T06:56:43;9.50;;;4.88;;
80758;SDS011;70150;45.582;10.178;2023-05-28T06:59:08;9.68;;;5.50;;
80758;SDS011;70150;45.582;10.178;2023-05-28T07:01:34;8.52;;;5.05;;
80758;SDS011;70150;45.582;10.178;2023-05-28T07:03:59;8.32;;;5.30;;
80758;SDS011;70150;45.582;10.178;2023-05-28T07:06:25;9.75;;;5.65;;
80758;SDS011;70150;45.582;10.178;2023-05-28T07:08:51;8.82;;;5.47;;
80758;SDS011;70150;45.582;10.178;2023-05-28T07:11:17;8.93;;;5.28;;
80758;SDS011;70150;45.582;10.178;2023-05-28T07:13:43;8.63;;;5.50;;
80758;SDS011;70150;45.582;10.178;2023-05-28T07:16:09;9.38;;;6.05;;
80758;SDS011;70150;45.582;10.178;2023-05-28T07:18:35;9.32;;;5.65;;
80758;SDS011;70150;45.582;10.178;2023-05-28T07:21:01;7.18;;;5.10;;
80758;SDS011;70150;45.582;10.178;2023-05-28T07:23:27;9.63;;;5.70;;
80758;SDS011;70150;45.582;10.178;2023-05-28T07:25:53;8.27;;;5.30;;
80758;SDS011;70150;45.582;10.178;2023-05-28T07:28:19;9.68;;;5.45;;
80758;SDS011;70150;45.582;10.178;2023-05-28T07:30:44;9.02;;;5.68;;
80758;SDS011;70150;45.582;10.178;2023-05-28T07:33:10;9.20;;;5.30;;
80758;SDS011;70150;45.582;10.178;2023-05-28T07:35:36;9.43;;;5.30;;
80758;SDS011;70150;45.582;10.178;2023-05-28T07:38:01;7.53;;;5.05;;
80758;SDS011;70150;45.582;10.178;2023-05-28T07:40:30;8.68;;;5.43;;
80758;SDS011;70150;45.582;10.178;2023-05-28T07:42:55;8.23;;;4.68;;
80758;SDS011;70150;45.582;10.178;2023-05-28T07:45:21;9.98;;;5.10;;
80758;SDS011;70150;45.582;10.178;2023-05-28T07:47:46;8.90;;;5.97;;
80758;SDS011;70150;45.582;10.178;2023-05-28T07:50:13;11.75;;;5.57;;
80758;SDS011;70150;45.582;10.178;2023-05-28T07:52:38;10.93;;;5.10;;
80758;SDS011;70150;45.582;10.178;2023-05-28T07:55:06;8.77;;;5.80;;
80758;SDS011;70150;45.582;10.178;2023-05-28T07:57:32;9.30;;;6.05;;
80758;SDS011;70150;45.582;10.178;2023-05-28T07:59:58;10.02;;;5.78;;
80758;SDS011;70150;45.582;10.178;2023-05-28T08:02:25;9.65;;;5.72;;
80758;SDS011;70150;45.582;10.178;2023-05-28T08:04:52;9.98;;;5.32;;
80758;SDS011;70150;45.582;10.178;2023-05-28T08:09:44;10.25;;;5.82;;
80758;SDS011;70150;45.582;10.178;2023-05-28T08:12:09;8.98;;;4.95;;
80758;SDS011;70150;45.582;10.178;2023-05-28T08:14:35;11.70;;;5.43;;
80758;SDS011;70150;45.582;10.178;2023-05-28T08:17:01;9.48;;;5.45;;
80758;SDS011;70150;45.582;10.178;2023-05-28T08:19:26;8.82;;;5.18;;
80758;SDS011;70150;45.582;10.178;2023-05-28T08:21:52;8.60;;;5.45;;
80758;SDS011;70150;45.582;10.178;2023-05-28T08:24:18;9.05;;;5.82;;
80758;SDS011;70150;45.582;10.178;2023-05-28T08:26:45;8.10;;;5.70;;
80758;SDS011;70150;45.582;10.178;2023-05-28T08:29:11;11.38;;;6.47;;
80758;SDS011;70150;45.582;10.178;2023-05-28T08:31:37;11.32;;;6.20;;
80758;SDS011;70150;45.582;10.178;2023-05-28T08:34:02;9.23;;;6.22;;
80758;SDS011;70150;45.582;10.178;2023-05-28T08:36:28;11.05;;;6.20;;
80758;SDS011;70150;45.582;10.178;2023-05-28T08:38:54;11.15;;;6.38;;
80758;SDS011;70150;45.582;10.178;2023-05-28T08:41:20;8.95;;;5.90;;
80758;SDS011;70150;45.582;10.178;2023-05-28T08:43:46;9.88;;;6.72;;
80758;SDS011;70150;45.582;10.178;2023-05-28T08:46:12;11.00;;;6.63;;
80758;SDS011;70150;45.582;10.178;2023-05-28T08:48:39;8.80;;;6.32;;
80758;SDS011;70150;45.582;10.178;2023-05-28T08:51:06;9.50;;;6.75;;
80758;SDS011;70150;45.582;10.178;2023-05-28T08:53:39;14.80;;;7.32;;
80758;SDS011;70150;45.582;10.178;2023-05-28T08:56:06;10.82;;;7.20;;
80758;SDS011;70150;45.582;10.178;2023-05-28T08:58:33;9.73;;;6.97;;
80758;SDS011;70150;45.582;10.178;2023-05-28T09:01:03;12.07;;;7.25;;
80758;SDS011;70150;45.582;10.178;2023-05-28T09:03:33;12.00;;;7.25;;
80758;SDS011;70150;45.582;10.178;2023-05-28T09:06:00;11.13;;;6.68;;
80758;SDS011;70150;45.582;10.178;2023-05-28T09:08:26;12.82;;;7.45;;
80758;SDS011;70150;45.582;10.178;2023-05-28T09:10:52;13.98;;;8.15;;
80758;SDS011;70150;45.582;10.178;2023-05-28T09:13:21;12.35;;;7.85;;
80758;SDS011;70150;45.582;10.178;2023-05-28T09:18:19;12.60;;;7.38;;
80758;SDS011;70150;45.582;10.178;2023-05-28T09:20:47;11.15;;;7.50;;
80758;SDS011;70150;45.582;10.178;2023-05-28T09:23:15;11.45;;;6.53;;
80758;SDS011;70150;45.582;10.178;2023-05-28T09:25:41;9.20;;;6.40;;
80758;SDS011;70150;45.582;10.178;2023-05-28T09:28:07;11.63;;;6.85;;
80758;SDS011;70150;45.582;10.178;2023-05-28T09:30:34;7.72;;;6.05;;
80758;SDS011;70150;45.582;10.178;2023-05-28T09:33:02;11.95;;;7.03;;
80758;SDS011;70150;45.582;10.178;2023-05-28T09:35:29;11.48;;;6.95;;
80758;SDS011;70150;45.582;10.178;2023-05-28T09:40:26;13.60;;;7.28;;
80758;SDS011;70150;45.582;10.178;2023-05-28T09:42:51;10.52;;;6.32;;
80758;SDS011;70150;45.582;10.178;2023-05-28T09:45:22;12.07;;;7.07;;
80758;SDS011;70150;45.582;10.178;2023-05-28T09:47:49;10.75;;;6.53;;
80758;SDS011;70150;45.582;10.178;2023-05-28T09:50:15;10.23;;;6.63;;
80758;SDS011;70150;45.582;10.178;2023-05-28T09:52:42;12.52;;;7.15;;
80758;SDS011;70150;45.582;10.178;2023-05-28T09:55:11;10.93;;;7.45;;
80758;SDS011;70150;45.582;10.178;2023-05-28T09:57:42;11.98;;;7.80;;
80758;SDS011;70150;45.582;10.178;2023-05-28T10:00:11;13.10;;;7.47;;
80758;SDS011;70150;45.582;10.178;2023-05-28T10:05:19;11.82;;;7.95;;
80758;SDS011;70150;45.582;10.178;2023-05-28T10:07:48;10.93;;;7.65;;
80758;SDS011;70150;45.582;10.178;2023-05-28T10:10:18;12.35;;;8.32;;
80758;SDS011;70150;45.582;10.178;2023-05-28T10:12:45;15.38;;;8.80;;
80758;SDS011;70150;45.582;10.178;2023-05-28T10:15:11;14.25;;;8.73;;
80758;SDS011;70150;45.582;10.178;2023-05-28T10:17:38;11.52;;;7.78;;
80758;SDS011;70150;45.582;10.178;2023-05-28T10:20:04;13.07;;;8.80;;
80758;SDS011;70150;45.582;10.178;2023-05-28T10:22:31;15.43;;;8.70;;
80758;SDS011;70150;45.582;10.178;2023-05-28T10:24:58;10.98;;;7.40;;
80758;SDS011;70150;45.582;10.178;2023-05-28T10:27:28;13.02;;;8.43;;
80758;SDS011;70150;45.582;10.178;2023-05-28T10:29:55;11.82;;;8.38;;
80758;SDS011;70150;45.582;10.178;2023-05-28T10:32:21;12.15;;;8.95;;
80758;SDS011;70150;45.582;10.178;2023-05-28T10:34:46;14.73;;;9.57;;
80758;SDS011;70150;45.582;10.178;2023-05-28T10:37:12;13.68;;;9.13;;
80758;SDS011;70150;45.582;10.178;2023-05-28T10:42:08;13.65;;;8.82;;
80758;SDS011;70150;45.582;10.178;2023-05-28T10:47:10;15.38;;;8.35;;
80758;SDS011;70150;45.582;10.178;2023-05-28T10:49:43;12.77;;;8.57;;
80758;SDS011;70150;45.582;10.178;2023-05-28T10:52:24;19.23;;;11.85;;
80758;SDS011;70150;45.582;10.178;2023-05-28T10:54:51;14.23;;;9.18;;
80758;SDS011;70150;45.582;10.178;2023-05-28T10:57:18;12.32;;;7.70;;
80758;SDS011;70150;45.582;10.178;2023-05-28T11:02:12;12.60;;;8.40;;
80758;SDS011;70150;45.582;10.178;2023-05-28T11:04:43;13.02;;;8.60;;
80758;SDS011;70150;45.582;10.178;2023-05-28T11:07:10;13.32;;;8.32;;
80758;SDS011;70150;45.582;10.178;2023-05-28T11:09:37;14.13;;;7.97;;
80758;SDS011;70150;45.582;10.178;2023-05-28T11:12:04;12.80;;;7.85;;
80758;SDS011;70150;45.582;10.178;2023-05-28T11:17:01;13.00;;;8.32;;
80758;SDS011;70150;45.582;10.178;2023-05-28T11:19:30;13.52;;;8.63;;
80758;SDS011;70150;45.582;10.178;2023-05-28T11:21:55;13.98;;;9.05;;
80758;SDS011;70150;45.582;10.178;2023-05-28T11:24:21;14.80;;;8.88;;
80758;SDS011;70150;45.582;10.178;2023-05-28T11:26:47;14.63;;;9.70;;
80758;SDS011;70150;45.582;10.178;2023-05-28T11:29:13;13.60;;;9.95;;
80758;SDS011;70150;45.582;10.178;2023-05-28T11:31:40;14.85;;;9.48;;
80758;SDS011;70150;45.582;10.178;2023-05-28T11:34:06;19.30;;;9.98;;
80758;SDS011;70150;45.582;10.178;2023-05-28T11:39:07;14.63;;;10.52;;
80758;SDS011;70150;45.582;10.178;2023-05-28T11:41:33;15.88;;;10.25;;
80758;SDS011;70150;45.582;10.178;2023-05-28T11:43:59;19.58;;;10.10;;
80758;SDS011;70150;45.582;10.178;2023-05-28T11:46:24;15.95;;;10.10;;
80758;SDS011;70150;45.582;10.178;2023-05-28T11:48:50;17.10;;;11.10;;
80758;SDS011;70150;45.582;10.178;2023-05-28T11:51:18;16.10;;;10.65;;
80758;SDS011;70150;45.582;10.178;2023-05-28T11:53:45;17.08;;;10.73;;
80758;SDS011;70150;45.582;10.178;2023-05-28T11:56:11;17.63;;;11.35;;
80758;SDS011;70150;45.582;10.178;2023-05-28T11:58:38;16.42;;;10.93;;
80758;SDS011;70150;45.582;10.178;2023-05-28T12:03:39;18.55;;;11.98;;
80758;SDS011;70150;45.582;10.178;2023-05-28T12:06:05;17.08;;;11.27;;
80758;SDS011;70150;45.582;10.178;2023-05-28T12:08:31;16.75;;;10.82;;
80758;SDS011;70150;45.582;10.178;2023-05-28T12:16:04;15.40;;;10.68;;
80758;SDS011;70150;45.582;10.178;2023-05-28T12:18:31;18.48;;;10.65;;
80758;SDS011;70150;45.582;10.178;2023-05-28T12:20:57;17.20;;;11.13;;
80758;SDS011;70150;45.582;10.178;2023-05-28T12:23:26;20.08;;;11.57;;
80758;SDS011;70150;45.582;10.178;2023-05-28T12:25:52;18.33;;;12.18;;
80758;SDS011;70150;45.582;10.178;2023-05-28T12:28:18;17.60;;;11.43;;
80758;SDS011;70150;45.582;10.178;2023-05-28T12:30:45;18.40;;;11.57;;
80758;SDS011;70150;45.582;10.178;2023-05-28T12:33:14;17.15;;;12.63;;
80758;SDS011;70150;45.582;10.178;2023-05-28T12:35:40;16.77;;;11.55;;
80758;SDS011;70150;45.582;10.178;2023-05-28T12:38:05;15.00;;;10.20;;
80758;SDS011;70150;45.582;10.178;2023-05-28T12:40:31;19.95;;;11.65;;
80758;SDS011;70150;45.582;10.178;2023-05-28T12:42:57;15.38;;;10.60;;
80758;SDS011;70150;45.582;10.178;2023-05-28T12:45:22;16.83;;;10.65;;
80758;SDS011;70150;45.582;10.178;2023-05-28T12:47:48;15.90;;;10.77;;
80758;SDS011;70150;45.582;10.178;2023-05-28T12:50:13;16.40;;;10.70;;
80758;SDS011;70150;45.582;10.178;2023-05-28T12:52:39;13.68;;;9.38;;
80758;SDS011;70150;45.582;10.178;2023-05-28T12:55:05;16.67;;;10.70;;
80758;SDS011;70150;45.582;10.178;2023-05-28T13:00:00;16.50;;;10.05;;
80758;SDS011;70150;45.582;10.178;2023-05-28T13:02:25;17.58;;;11.40;;
80758;SDS011;70150;45.582;10.178;2023-05-28T13:04:51;16.80;;;11.57;;
80758;SDS011;70150;45.582;10.178;2023-05-28T13:07:16;15.23;;;10.57;;
80758;SDS011;70150;45.582;10.178;2023-05-28T13:09:42;15.93;;;10.80;;
80758;SDS011;70150;45.582;10.178;2023-05-28T13:12:10;14.40;;;9.25;;
80758;SDS011;70150;45.582;10.178;2023-05-28T13:14:36;16.20;;;9.23;;
80758;SDS011;70150;45.582;10.178;2023-05-28T13:17:01;16.17;;;9.32;;
80758;SDS011;70150;45.582;10.178;2023-05-28T13:19:28;15.23;;;9.10;;
80758;SDS011;70150;45.582;10.178;2023-05-28T13:21:54;15.45;;;10.82;;
80758;SDS011;70150;45.582;10.178;2023-05-28T13:24:20;13.95;;;8.57;;
80758;SDS011;70150;45.582;10.178;2023-05-28T13:26:46;14.85;;;9.80;;
80758;SDS011;70150;45.582;10.178;2023-05-28T13:29:11;16.02;;;10.00;;
80758;SDS011;70150;45.582;10.178;2023-05-28T13:31:37;14.90;;;10.32;;
80758;SDS011;70150;45.582;10.178;2023-05-28T13:34:02;16.20;;;10.80;;
80758;SDS011;70150;45.582;10.178;2023-05-28T13:36:28;17.02;;;10.48;;
80758;SDS011;70150;45.582;10.178;2023-05-28T13:38:54;16.77;;;10.55;;
80758;SDS011;70150;45.582;10.178;2023-05-28T13:41:21;13.82;;;9.35;;
80758;SDS011;70150;45.582;10.178;2023-05-28T13:43:48;15.32;;;9.20;;
80758;SDS011;70150;45.582;10.178;2023-05-28T13:46:16;19.58;;;8.98;;
80758;SDS011;70150;45.582;10.178;2023-05-28T13:48:44;19.67;;;9.98;;
80758;SDS011;70150;45.582;10.178;2023-05-28T13:51:10;16.80;;;10.23;;
80758;SDS011;70150;45.582;10.178;2023-05-28T13:53:37;15.73;;;10.18;;
80758;SDS011;70150;45.582;10.178;2023-05-28T13:56:03;16.20;;;10.27;;
80758;SDS011;70150;45.582;10.178;2023-05-28T13:58:29;12.48;;;8.48;;
80758;SDS011;70150;45.582;10.178;2023-05-28T14:00:54;10.95;;;7.50;;
80758;SDS011;70150;45.582;10.178;2023-05-28T14:03:20;12.70;;;7.85;;
80758;SDS011;70150;45.582;10.178;2023-05-28T14:05:46;12.32;;;7.82;;
80758;SDS011;70150;45.582;10.178;2023-05-28T14:08:12;11.75;;;6.85;;
80758;SDS011;70150;45.582;10.178;2023-05-28T14:10:38;11.43;;;6.72;;
80758;SDS011;70150;45.582;10.178;2023-05-28T14:13:04;13.68;;;7.80;;
80758;SDS011;70150;45.582;10.178;2023-05-28T14:15:30;14.40;;;8.55;;
80758;SDS011;70150;45.582;10.178;2023-05-28T14:17:55;12.85;;;8.38;;
80758;SDS011;70150;45.582;10.178;2023-05-28T14:20:21;13.57;;;8.32;;
80758;SDS011;70150;45.582;10.178;2023-05-28T14:22:46;15.15;;;8.57;;
80758;SDS011;70150;45.582;10.178;2023-05-28T14:25:12;12.75;;;7.55;;
80758;SDS011;70150;45.582;10.178;2023-05-28T14:27:38;13.73;;;7.50;;
80758;SDS011;70150;45.582;10.178;2023-05-28T14:30:04;12.98;;;7.70;;
80758;SDS011;70150;45.582;10.178;2023-05-28T14:32:30;15.32;;;8.10;;
80758;SDS011;70150;45.582;10.178;2023-05-28T14:34:57;15.43;;;8.23;;
80758;SDS011;70150;45.582;10.178;2023-05-28T14:37:26;13.73;;;7.65;;
80758;SDS011;70150;45.582;10.178;2023-05-28T14:39:52;13.55;;;7.45;;
80758;SDS011;70150;45.582;10.178;2023-05-28T14:42:17;12.65;;;7.88;;
80758;SDS011;70150;45.582;10.178;2023-05-28T14:44:43;12.02;;;7.78;;
80758;SDS011;70150;45.582;10.178;2023-05-28T14:47:08;13.88;;;7.90;;
80758;SDS011;70150;45.582;10.178;2023-05-28T14:49:34;12.77;;;7.47;;
80758;SDS011;70150;45.582;10.178;2023-05-28T14:52:09;12.70;;;7.70;;
80758;SDS011;70150;45.582;10.178;2023-05-28T14:54:46;13.07;;;7.97;;
80758;SDS011;70150;45.582;10.178;2023-05-28T14:57:12;12.02;;;7.88;;
80758;SDS011;70150;45.582;10.178;2023-05-28T14:59:37;11.75;;;7.72;;
80758;SDS011;70150;45.582;10.178;2023-05-28T15:02:03;11.30;;;7.18;;
80758;SDS011;70150;45.582;10.178;2023-05-28T15:04:31;13.20;;;7.22;;
80758;SDS011;70150;45.582;10.178;2023-05-28T15:06:56;12.55;;;7.80;;
80758;SDS011;70150;45.582;10.178;2023-05-28T15:09:25;11.50;;;8.07;;